Latest Weather Observations for Tasman Island

IDT60801

Issued at 1:31 pm EDT Thursday 5 March 2015 (issued every 30 minutes, with the page automatically refreshed every 10 minutes)

About weather observations | Map of weather stations | Latest weather observations for TAS | Other Formats
Station Details ID: 094155 Name: TASMAN ISLAND Lat: -43.24 Lon: 148.00 Height: 240.0 m
Data from the previous 72 hours. | See also: Recent months at Tasman Island
Date/Time
EDT
Temp
°C
App
Temp
°C
Dew
Point
Rel
Hum
%
Delta-T
°C
Wind Press
QNH
hPa
Press
MSL
hPa
Rain
since 9 am
mm
Dir
 
Spd
km/h
Gust
km/h
Spd
kts
Gust
kts
05/01:30pm 9.2 5.1 4.2 71 2.2 SW 15 46 8 25 1004.0 1003.7 0.2
05/01:00pm 8.2 3.4 4.4 77 1.7 WNW 19 72 10 39 1004.0 1003.7 0.2
05/12:53pm 7.9 2.3 3.6 74 1.9 N 22 74 12 40 1003.8 1003.5 0.2
05/12:51pm 8.3 2.8 3.8 73 2.0 N 22 74 12 40 1003.5 1003.2 0.2
05/12:50pm 9.1 4.0 4.1 71 2.2 N 20 74 11 40 1003.6 1003.3 0.2
05/12:30pm 9.9 3.8 2.7 61 3.1 WSW 24 65 13 35 1003.8 1003.5 0.2
05/12:27pm 10.2 4.1 2.6 59 3.3 WSW 24 65 13 35 1003.7 1003.4 0.2
05/12:22pm 10.3 3.2 3.3 62 3.1 SW 30 95 16 51 1003.6 1003.3 0.2
05/12:14pm 10.4 1.6 3.7 63 3.0 WSW 39 95 21 51 1003.4 1003.1 0.2
05/12:00pm 10.2 3.1 3.3 62 3.1 WSW 30 69 16 37 1003.4 1003.1 0.2
05/11:30am 10.0 2.2 1.9 57 3.5 WSW 32 67 17 36 1003.1 1002.8 0.2
05/11:00am 9.2 1.0 2.8 64 2.8 WSW 35 102 19 55 1002.9 1002.6 0.2
05/10:50am 10.0 2.0 1.6 56 3.6 WSW 33 104 18 56 1002.8 1002.5 0.2
05/10:39am 8.6 0.0 2.4 65 2.6 WSW 37 83 20 45 1003.3 1003.0 0.2
05/10:30am 9.3 -0.3 3.5 67 2.5 SW 43 89 23 48 1002.6 1002.3 0.2
05/10:00am 9.2 -0.8 0.9 56 3.4 SW 43 82 23 44 1002.4 1002.1 0.2
05/09:43am 8.5 -2.9 3.1 69 2.3 SW 52 95 28 51 1001.7 1001.4 0.2
05/09:30am 8.7 -3.1 2.9 67 2.5 SW 54 93 29 50 1001.8 1001.5 0.2
05/09:20am 6.3 -7.4 1.6 72 1.9 SW 63 107 34 58 1001.9 1001.6 0.2
05/09:13am 8.1 -2.4 3.6 73 2.0 SW 48 100 26 54 1001.0 1000.7 0.0
05/09:00am 9.0 -0.5 1.9 61 3.0 SW 41 83 22 45 1001.2 1000.9 7.0
05/08:55am 9.2 1.1 3.0 65 2.7 SW 35 83 19 45 1001.0 1000.7 7.0
05/08:52am 8.9 0.6 2.3 63 2.8 SW 35 74 19 40 1001.0 1000.7 7.0
05/08:30am 8.0 -1.5 2.0 66 2.5 WSW 41 83 22 45 1000.4 1000.1 7.0
05/08:17am 7.9 -0.6 3.4 73 1.9 SW 37 91 20 49 999.9 999.6 6.4
05/08:11am 8.3 -3.8 3.4 71 2.1 SW 56 98 30 53 999.9 999.6 6.4
05/08:00am 8.4 -5.5 2.8 68 2.4 SW 65 100 35 54 999.3 999.0 6.4
05/07:50am 8.4 -0.8 3.3 70 2.2 SW 41 96 22 52 999.1 998.8 6.4
05/07:46am 8.5 1.0 4.3 75 1.9 SW 33 91 18 49 999.2 998.9 6.4
05/07:42am 8.0 -0.4 3.8 75 1.8 SW 37 78 20 42 999.2 998.9 6.4
05/07:30am 8.8 -1.7 5.4 79 1.6 SSW 50 82 27 44 998.7 998.4 6.2
05/07:00am 8.1 -3.0 6.4 89 0.8 SW 54 83 29 45 998.7 998.4 5.6
05/06:35am 6.7 -4.0 6.6 99 0.0 SSW 52 107 28 58 997.5 997.1 5.6
05/06:30am 5.2 -5.5 4.5 95 0.3 SSW 50 83 27 45 998.2 997.9 5.4
05/06:00am 7.5 -5.6 6.6 94 0.4 SW 65 98 35 53 996.8 996.5 4.2
05/05:48am 6.7 -3.3 4.2 84 1.1 SW 46 130 25 70 995.9 995.6 4.0
05/05:46am 7.5 -0.3 5.0 84 1.1 SW 35 111 19 60 995.8 995.5 4.0
05/05:45am 8.2 1.9 5.8 85 1.1 WSW 28 111 15 60 996.0 995.7 4.0
05/05:44am 8.1 3.0 6.1 87 0.9 WSW 22 80 12 43 996.3 996.0 4.0
05/05:30am 7.3 1.4 5.8 90 0.7 WSW 26 59 14 32 996.9 996.6 4.0
05/05:00am 8.6 3.3 5.0 78 1.6 WSW 22 63 12 34 995.8 995.5 2.8
05/04:59am 8.5 3.7 5.4 81 1.4 SW 20 63 11 34 995.8 995.5 2.8
05/04:30am 8.3 5.0 6.4 88 0.9 W 13 35 7 19 996.0 995.7 2.8
05/04:00am 7.8 1.5 5.9 88 0.9 SW 28 65 15 35 995.3 995.0 2.6
05/03:30am 8.2 1.0 5.8 85 1.1 WSW 33 76 18 41 994.9 994.6 2.2
05/03:16am 8.7 2.6 6.5 86 1.0 WSW 28 65 15 35 995.2 994.9 2.2
05/03:00am 8.5 2.7 6.3 86 1.0 SW 26 69 14 37 995.0 994.7 2.2
05/02:38am 8.7 4.2 6.2 84 1.2 SW 19 63 10 34 995.2 994.9 2.2
05/02:30am 9.5 5.8 6.2 80 1.5 SW 15 39 8 21 995.4 995.1 2.2
05/02:00am 9.6 6.4 7.0 84 1.3 NW 13 39 7 21 995.6 995.3 2.2
05/01:30am 9.7 6.8 8.3 91 0.7 W 13 41 7 22 995.4 995.1 2.0
05/01:00am 10.5 7.6 8.1 85 1.2 NNW 13 41 7 22 995.5 995.2 1.2
05/12:30am 11.1 8.4 7.2 77 1.9 E 11 28 6 15 994.9 994.6 0.8
05/12:00am 11.4 8.8 9.5 88 1.0 WSW 13 32 7 17 995.1 994.8 0.8
 
Date/Time
EDT
Temp
°C
App
Temp
°C
Dew
Point
Rel
Hum
%
Delta-T
°C
Wind Press
QNH
hPa
Press
MSL
hPa
Rain
since 9 am
mm
Dir
 
Spd
km/h
Gust
km/h
Spd
kts
Gust
kts
04/11:30pm 11.6 8.8 8.5 81 1.6 WNW 13 39 7 21 995.7 995.4 0.4
04/11:00pm 14.0 10.1 7.3 64 3.4 NW 17 33 9 18 995.9 995.6 0.2
04/10:30pm 14.2 10.5 6.3 59 3.8 NW 15 41 8 22 996.1 995.8 0.2
04/10:00pm 14.2 6.4 6.8 61 3.7 WNW 37 61 20 33 996.3 996.0 0.2
04/09:43pm 14.1 7.4 7.2 63 3.4 NW 32 56 17 30 996.4 996.1 0.2
04/09:30pm 14.1 7.8 7.6 65 3.2 NW 30 43 16 23 997.2 996.8 0.2
04/09:00pm 13.6 6.7 8.7 72 2.5 WNW 35 54 19 29 997.2 996.8 0.2
04/08:37pm 13.2 6.3 8.7 74 2.3 NW 35 54 19 29 997.4 997.0 0.2
04/08:30pm 13.0 4.5 8.5 74 2.3 NW 43 57 23 31 997.3 996.9 0.2
04/08:11pm 15.3 9.3 7.1 58 4.1 NW 28 48 15 26 997.2 996.8 0.2
04/08:00pm 15.3 10.0 6.8 57 4.2 WNW 24 50 13 27 997.2 996.8 0.2
04/07:30pm 15.4 8.4 6.7 56 4.3 WNW 33 57 18 31 997.4 997.0 0.2
04/07:24pm 15.4 8.4 6.7 56 4.3 WNW 33 57 18 31 997.5 997.1 0.2
04/07:00pm 15.4 12.2 8.4 63 3.6 WNW 15 32 8 17 998.3 998.0 0.2
04/06:30pm 15.1 13.0 8.1 63 3.6 WSW 9 33 5 18 998.6 998.3 0.2
04/06:00pm 17.2 10.8 5.2 45 5.9 WNW 28 43 15 23 998.8 998.5 0.2
04/05:41pm 17.2 11.3 5.8 47 5.6 WNW 26 48 14 26 999.0 998.7 0.2
04/05:30pm 17.4 14.0 7.7 53 5.0 W 15 32 8 17 999.1 998.8 0.2
04/05:00pm 17.7 15.9 9.3 58 4.5 WNW 9 30 5 16 999.4 999.1 0.2
04/04:30pm 16.6 14.8 9.3 62 3.8 WSW 9 19 5 10 999.7 999.4 0.2
04/04:00pm 16.1 13.8 9.1 63 3.7 WSW 11 28 6 15 1000.1 999.8 0.2
04/03:30pm 16.5 15.2 10.1 66 3.4 NW 7 20 4 11 1000.4 1000.1 0.2
04/03:00pm 17.1 14.9 9.5 61 4.0 WSW 11 32 6 17 1000.4 1000.1 0.2
04/02:30pm 17.4 15.0 8.5 56 4.6 WSW 11 35 6 19 1000.4 1000.1 0.2
04/02:00pm 18.5 16.8 8.5 52 5.3 SW 7 24 4 13 1000.5 1000.2 0.2
04/01:30pm 17.7 15.2 8.3 54 4.9 W 11 28 6 15 1000.6 1000.3 0.2
04/01:00pm 17.0 13.5 10.8 67 3.4 W 20 32 11 17 1001.5 1001.2 0.2
04/12:30pm 16.0 13.3 10.5 70 2.9 WSW 15 43 8 23 1001.8 1001.5 0.2
04/12:00pm 17.8 15.1 8.9 56 4.7 WNW 13 33 7 18 1001.8 1001.5 0.2
04/11:35am 17.0 10.2 7.6 54 4.8 NW 33 54 18 29 1001.9 1001.6 0.2
04/11:30am 16.6 9.9 8.1 57 4.4 NW 33 52 18 28 1002.0 1001.7 0.0
04/11:00am 15.9 10.0 7.4 57 4.3 WNW 28 48 15 26 1002.5 1002.2 0.0
04/10:43am 15.8 9.0 7.1 56 4.4 WNW 32 52 17 28 1002.5 1002.2 0.0
04/10:30am 17.0 9.8 7.6 54 4.8 NW 35 54 19 29 1002.5 1002.2 0.0
04/10:02am 15.9 7.0 7.7 58 4.2 NW 44 63 24 34 1002.2 1001.9 0.0
04/10:00am 15.7 6.4 7.5 58 4.2 NW 46 63 25 34 1002.1 1001.8 0.0
04/09:36am 15.4 5.3 7.4 59 4.0 NW 50 70 27 38 1002.3 1002.0 0.0
04/09:30am 15.4 4.9 7.2 58 4.1 NW 52 69 28 37 1002.1 1001.8 0.0
04/09:00am 14.6 4.8 6.9 60 3.8 NW 48 65 26 35 1002.1 1001.8 0.2
04/08:30am 14.2 5.2 7.3 63 3.4 NW 44 63 24 34 1002.9 1002.6 0.2
04/08:00am 13.9 6.4 6.5 61 3.6 NW 35 54 19 29 1003.0 1002.7 0.2
04/07:32am 13.5 6.4 6.6 63 3.4 NW 33 56 18 30 1003.1 1002.8 0.2
04/07:30am 13.5 6.6 6.6 63 3.4 NW 32 48 17 26 1003.2 1002.9 0.2
04/07:00am 12.8 7.1 6.6 66 3.0 NNW 26 39 14 21 1003.5 1003.2 0.2
04/06:38am 12.8 5.7 6.2 64 3.2 NW 33 54 18 29 1003.1 1002.8 0.2
04/06:30am 13.0 4.3 5.9 62 3.4 NW 41 57 22 31 1003.3 1003.0 0.2
04/06:02am 12.9 6.2 5.8 62 3.4 NW 30 50 16 27 1003.6 1003.3 0.2
04/06:00am 12.6 6.3 5.8 63 3.2 NW 28 39 15 21 1003.6 1003.3 0.2
04/05:30am 12.8 5.2 5.7 62 3.4 WNW 35 50 19 27 1003.6 1003.3 0.2
04/05:02am 12.6 5.5 5.3 61 3.4 NW 32 50 17 27 1003.8 1003.5 0.2
04/05:00am 12.4 5.3 5.3 62 3.4 NW 32 48 17 26 1003.9 1003.6 0.2
04/04:53am 12.6 6.2 5.1 60 3.5 WNW 28 48 15 26 1004.2 1003.9 0.2
04/04:30am 12.3 4.9 5.0 61 3.4 NW 33 48 18 26 1004.4 1004.1 0.2
04/04:06am 12.3 5.9 5.0 61 3.4 NW 28 50 15 27 1004.5 1004.2 0.2
04/04:00am 12.0 5.9 5.0 62 3.3 NW 26 41 14 22 1004.7 1004.4 0.2
04/03:30am 12.2 6.1 4.7 60 3.5 NW 26 41 14 22 1005.1 1004.9 0.2
04/03:00am 12.1 5.9 4.3 59 3.6 WNW 26 39 14 21 1005.5 1005.3 0.2
04/02:30am 11.9 6.1 4.6 61 3.4 WNW 24 39 13 21 1006.0 1005.7 0.2
04/02:00am 11.9 5.6 3.9 58 3.6 WNW 26 39 14 21 1006.6 1006.3 0.2
04/01:30am 11.6 6.5 3.9 59 3.5 NW 20 32 11 17 1007.2 1006.9 0.2
04/01:00am 12.0 6.9 4.0 58 3.7 WNW 20 30 11 16 1007.7 1007.4 0.2
04/12:30am 11.7 7.2 4.0 59 3.5 WNW 17 32 9 17 1008.3 1008.0 0.2
04/12:00am 12.1 8.5 5.0 62 3.3 WNW 13 32 7 17 1009.0 1008.8 0.2
 
Date/Time
EDT
Temp
°C
App
Temp
°C
Dew
Point
Rel
Hum
%
Delta-T
°C
Wind Press
QNH
hPa
Press
MSL
hPa
Rain
since 9 am
mm
Dir
 
Spd
km/h
Gust
km/h
Spd
kts
Gust
kts
03/11:30pm 12.4 7.5 5.1 61 3.4 NW 20 43 11 23 1009.1 1008.9 0.2
03/11:00pm 12.2 9.7 9.8 85 1.2 WNW 13 28 7 15 1009.2 1009.0 0.2
03/10:30pm 13.2 9.8 11.4 89 1.0 NNW 20 28 11 15 1009.8 1009.6 0.0
03/10:00pm 12.1 8.0 10.2 88 1.0 NNE 22 32 12 17 1009.9 1009.7 0.0
03/09:30pm 12.1 8.4 9.3 83 1.4 NE 19 28 10 15 1010.4 1010.1 0.0
03/09:00pm 12.0 7.9 8.7 80 1.7 NE 20 33 11 18 1010.6 1010.3 0.0
03/08:30pm 12.3 7.6 7.8 74 2.2 NE 22 37 12 20 1010.6 1010.3 0.0
03/08:00pm 12.6 8.3 7.9 73 2.3 NE 20 33 11 18 1010.7 1010.4 0.0
03/07:30pm 12.6 8.4 7.5 71 2.5 NE 19 33 10 18 1011.0 1010.7 0.0
03/07:00pm 12.7 9.8 6.5 66 3.0 NE 11 26 6 14 1011.4 1011.1 0.0
03/06:30pm 12.9 10.3 6.0 63 3.3 NNE 9 20 5 11 1011.6 1011.3 0.0
03/06:00pm 13.6 10.8 5.3 57 3.9 ENE 9 17 5 9 1011.7 1011.4 0.0
03/05:30pm 14.4 12.2 5.2 54 4.4 E 6 13 3 7 1012.0 1011.7 0.0
03/05:00pm 14.4 12.1 5.7 56 4.2 E 7 13 4 7 1012.0 1011.7 0.0
03/04:30pm 14.5 12.1 5.3 54 4.4 SE 7 13 4 7 1012.2 1012.0 0.0
03/04:00pm 15.1 12.4 5.6 53 4.6 S 9 13 5 7 1012.3 1012.1 0.0
03/03:30pm 15.6 11.4 5.8 52 4.8 SW 17 22 9 12 1012.2 1012.0 0.0
03/03:00pm 16.2 13.2 5.8 50 5.1 WSW 11 19 6 10 1012.5 1012.3 0.0
03/02:30pm 16.2 12.7 5.5 49 5.2 SW 13 19 7 10 1012.9 1012.7 0.0
03/02:00pm 15.4 12.9 4.8 49 5.0 WSW 7 19 4 10 1013.3 1013.1 0.0
03/01:30pm 15.2 12.5 5.4 52 4.7 W 9 24 5 13 1013.5 1013.3 0.0
03/01:00pm 14.9 12.4 4.9 51 4.7 WNW 7 19 4 10 1013.6 1013.4 0.0
03/12:30pm 14.8 12.4 5.1 52 4.6 SW 7 22 4 12 1014.1 1013.9 0.0
03/12:00pm 14.4 11.4 4.1 50 4.8 WSW 9 22 5 12 1014.6 1014.3 0.0
03/11:30am 14.9 12.7 5.1 52 4.7 NW 6 19 3 10 1014.7 1014.4 0.0
03/11:00am 13.8 11.4 4.4 53 4.4 W 6 24 3 13 1014.3 1014.1 0.0
03/10:30am 13.3 10.5 5.0 57 3.9 SW 9 28 5 15 1014.6 1014.3 0.0
03/10:00am 13.0 9.6 5.7 61 3.5 SW 13 32 7 17 1014.2 1014.0 0.0
03/09:30am 12.0 6.5 5.9 66 2.9 SW 24 56 13 30 1013.8 1013.6 0.0
03/09:00am 11.7 7.2 6.0 68 2.7 SW 19 41 10 22 1013.7 1013.5 0.4
03/08:30am 11.7 5.2 6.4 70 2.5 SW 30 54 16 29 1013.6 1013.4 0.4
03/08:00am 11.3 4.5 7.0 75 2.1 SW 32 61 17 33 1013.3 1013.1 0.4
03/07:30am 11.4 5.5 7.7 78 1.8 SSW 28 56 15 30 1012.9 1012.7 0.4
03/07:07am 11.5 5.8 8.2 80 1.6 SSW 28 57 15 31 1012.5 1012.3 0.4
03/07:00am 11.6 6.2 7.9 78 1.8 SW 26 56 14 30 1012.5 1012.3 0.4
03/06:55am 11.5 6.1 7.8 78 1.8 SW 26 56 14 30 1012.4 1012.2 0.4
03/06:30am 11.7 8.3 7.8 77 1.9 SW 15 39 8 21 1012.2 1012.0 0.4
03/06:00am 11.4 8.9 8.4 82 1.5 SSW 11 39 6 21 1011.8 1011.5 0.4
03/05:30am 11.1 6.5 8.1 82 1.5 SW 22 50 12 27 1011.7 1011.4 0.4
03/05:00am 10.9 6.2 9.3 90 0.8 SW 24 56 13 30 1011.4 1011.1 0.2
03/04:30am 10.8 5.5 9.7 93 0.6 SSW 28 46 15 25 1011.4 1011.1 0.2
03/04:00am 13.2 10.6 6.3 63 3.3 WSW 9 32 5 17 1011.2 1010.9 0.0
03/03:30am 13.6 8.4 5.7 59 3.8 WNW 22 43 12 23 1010.8 1010.5 0.0
03/03:11am 13.3 7.0 5.5 59 3.7 WNW 28 46 15 25 1010.7 1010.4 0.0
03/03:00am 13.4 7.4 5.3 58 3.8 WNW 26 43 14 23 1010.8 1010.5 0.0
03/02:40am 13.3 6.9 5.2 58 3.8 WNW 28 48 15 26 1010.9 1010.6 0.0
03/02:30am 13.0 7.0 5.2 59 3.7 NW 26 37 14 20 1011.0 1010.7 0.0
03/02:00am 12.3 7.1 5.5 63 3.2 NNW 22 35 12 19 1011.1 1010.8 0.0
03/01:40am 12.7 5.9 5.1 60 3.6 NNW 30 48 16 26 1011.0 1010.7 0.0
03/01:30am 12.6 5.1 4.6 58 3.7 NNW 33 48 18 26 1011.1 1010.8 0.0
03/01:00am 13.0 6.1 4.4 56 4.0 NW 30 39 16 21 1011.6 1011.3 0.0
03/12:39am 13.0 5.7 4.4 56 4.0 WNW 32 52 17 28 1011.8 1011.5 0.0
03/12:30am 12.9 6.8 4.8 58 3.8 NW 26 41 14 22 1012.0 1011.7 0.0
03/12:00am 12.9 10.3 6.0 63 3.3 NNE 9 33 5 18 1011.9 1011.6 0.0
 
Date/Time
EDT
Temp
°C
App
Temp
°C
Dew
Point
Rel
Hum
%
Delta-T
°C
Wind Press
QNH
hPa
Press
MSL
hPa
Rain
since 9 am
mm
Dir
 
Spd
km/h
Gust
km/h
Spd
kts
Gust
kts
02/11:31pm 13.2 8.7 7.0 66 3.0 NW 20 54 11 29 1012.0 1011.7 0.0
02/11:30pm 13.2 9.0 7.4 68 2.9 NW 19 44 10 24 1012.0 1011.7 0.0
02/11:00pm 12.8 11.3 10.5 86 1.2 WSW 9 20 5 11 1012.3 1012.1 0.0
02/10:30pm 12.6 10.3 10.5 87 1.1 SW 13 22 7 12 1012.3 1012.1 0.0
02/10:00pm 12.7 8.2 9.9 83 1.5 SW 24 33 13 18 1012.3 1012.1 0.0
02/09:30pm 12.7 9.0 10.1 84 1.4 SW 20 33 11 18 1012.0 1011.7 0.0
02/09:00pm 12.6 11.1 10.7 88 1.0 SSW 9 26 5 14 1011.8 1011.5 0.0
02/08:30pm 12.8 11.9 11.2 90 0.9 S 7 15 4 8 1011.3 1011.0 0.0
02/08:00pm 14.0 13.3 12.0 88 1.1 ESE 7 17 4 9 1011.0 1010.7 0.0
02/07:30pm 16.3 12.3 10.6 69 3.1 NNW 22 35 12 19 1010.6 1010.3 0.0
02/07:01pm 15.9 10.9 13.4 85 1.4 N 32 52 17 28 1010.3 1010.0 0.0
02/07:00pm 15.9 11.3 13.4 85 1.4 N 30 46 16 25 1010.3 1010.0 0.0
02/06:47pm 15.7 10.4 14.1 90 0.9 N 35 54 19 29 1010.2 1009.9 0.0
02/06:30pm 15.7 8.6 13.5 87 1.2 N 43 57 23 31 1010.2 1009.9 0.0
02/06:00pm 15.6 8.8 13.1 85 1.4 N 41 54 22 29 1010.5 1010.2 0.0
02/05:30pm 15.4 8.4 13.6 89 1.0 N 43 54 23 29 1010.8 1010.5 0.0
02/05:00pm 15.3 8.9 13.3 88 1.1 N 39 50 21 27 1011.1 1010.8 0.0
02/04:30pm 15.5 9.9 13.2 86 1.3 NNE 35 48 19 26 1011.7 1011.4 0.0
02/04:00pm 15.1 8.7 12.1 82 1.7 NNE 37 48 20 26 1012.1 1011.9 0.0
02/03:30pm 15.1 8.9 11.5 79 2.0 NNE 35 50 19 27 1012.7 1012.5 0.0
02/03:00pm 14.9 8.3 11.3 79 1.9 NNE 37 48 20 26 1013.2 1013.0 0.0
02/02:30pm 14.3 8.7 10.3 77 2.1 NNE 30 48 16 26 1013.8 1013.6 0.0
02/02:25pm 14.3 8.7 10.3 77 2.1 NNE 30 48 16 26 1013.9 1013.7 0.0
02/02:00pm 13.9 7.4 9.1 73 2.5 NNE 33 46 18 25 1014.6 1014.3 0.0

Other Formats:

Comma delimited format used in spreadsheet applications
http://www.bom.gov.au/fwo/IDT60801/IDT60801.95986.axf

JavaScript Object Notation format (JSON) in row-major order
http://www.bom.gov.au/fwo/IDT60801/IDT60801.95986.json